sensor_id;sensor_type;location;lat;lon;timestamp;pressure;altitude;pressure_sealevel;temperature;humidity
2036;BME280;23642;42.658;23.350;2024-02-23T00:02:15;49615.75;;;-146.31;89.65
2036;BME280;23642;42.658;23.350;2024-02-23T00:04:42;49644.63;;;-146.31;87.20
2036;BME280;23642;42.658;23.350;2024-02-23T00:07:10;49665.25;;;-146.31;86.99
2036;BME280;23642;42.658;23.350;2024-02-23T00:09:38;49681.75;;;-146.31;87.69
2036;BME280;23642;42.658;23.350;2024-02-23T00:12:05;49673.50;;;-146.31;85.63
2036;BME280;23642;42.658;23.350;2024-02-23T00:14:33;49667.31;;;-146.31;82.53
2036;BME280;23642;42.658;23.350;2024-02-23T00:17:02;49737.41;;;-146.31;83.57
2036;BME280;23642;42.658;23.350;2024-02-23T00:19:30;49731.22;;;-146.31;83.41
2036;BME280;23642;42.658;23.350;2024-02-23T00:21:57;49731.22;;;-146.31;82.86
2036;BME280;23642;42.658;23.350;2024-02-23T00:24:24;49753.91;;;-146.31;83.39
2036;BME280;23642;42.658;23.350;2024-02-23T00:26:53;49753.91;;;-146.31;83.92
2036;BME280;23642;42.658;23.350;2024-02-23T00:29:20;49741.53;;;-146.31;81.57
2036;BME280;23642;42.658;23.350;2024-02-23T00:31:47;49762.16;;;-146.31;80.47
2036;BME280;23642;42.658;23.350;2024-02-23T00:34:15;49780.72;;;-146.31;82.29
2036;BME280;23642;42.658;23.350;2024-02-23T00:36:43;49735.34;;;-146.31;83.40
2036;BME280;23642;42.658;23.350;2024-02-23T00:39:10;49776.59;;;-146.31;83.67
2036;BME280;23642;42.658;23.350;2024-02-23T00:41:37;49760.09;;;-146.31;84.89
2036;BME280;23642;42.658;23.350;2024-02-23T00:44:06;49733.28;;;-146.31;85.71
2036;BME280;23642;42.658;23.350;2024-02-23T00:46:33;49760.09;;;-146.31;83.92
2036;BME280;23642;42.658;23.350;2024-02-23T00:49:00;49766.28;;;-146.31;82.30
2036;BME280;23642;42.658;23.350;2024-02-23T00:51:27;49776.59;;;-146.31;80.53
2036;BME280;23642;42.658;23.350;2024-02-23T00:53:54;49772.47;;;-146.31;81.05
2036;BME280;23642;42.658;23.350;2024-02-23T00:56:35;49768.34;;;-146.31;80.59
2036;BME280;23642;42.658;23.350;2024-02-23T00:59:05;49786.91;;;-146.31;81.75
2036;BME280;23642;42.658;23.350;2024-02-23T01:01:32;49805.47;;;-146.31;81.27
2036;BME280;23642;42.658;23.350;2024-02-23T01:03:59;49791.03;;;-146.31;81.85
2036;BME280;23642;42.658;23.350;2024-02-23T01:06:26;49795.16;;;-146.31;82.73
2036;BME280;23642;42.658;23.350;2024-02-23T01:08:53;49803.41;;;-146.31;80.32
2036;BME280;23642;42.658;23.350;2024-02-23T01:11:20;49799.28;;;-146.31;80.66
2036;BME280;23642;42.658;23.350;2024-02-23T01:13:48;49784.84;;;-146.31;80.44
2036;BME280;23642;42.658;23.350;2024-02-23T01:16:16;49780.72;;;-146.31;80.93
2036;BME280;23642;42.658;23.350;2024-02-23T01:18:43;49774.53;;;-146.31;82.60
2036;BME280;23642;42.658;23.350;2024-02-23T01:21:10;49809.59;;;-146.31;81.19
2036;BME280;23642;42.658;23.350;2024-02-23T01:23:37;49782.78;;;-146.31;81.99
2036;BME280;23642;42.658;23.350;2024-02-23T01:26:04;49813.72;;;-146.31;80.36
2036;BME280;23642;42.658;23.350;2024-02-23T01:28:30;49793.09;;;-146.31;81.30
2036;BME280;23642;42.658;23.350;2024-02-23T01:30:58;49811.66;;;-146.31;82.31
2036;BME280;23642;42.658;23.350;2024-02-23T01:33:27;49780.72;;;-146.31;82.39
2036;BME280;23642;42.658;23.350;2024-02-23T01:35:57;49799.28;;;-146.31;83.47
2036;BME280;23642;42.658;23.350;2024-02-23T01:38:23;49768.34;;;-146.31;83.73
2036;BME280;23642;42.658;23.350;2024-02-23T01:40:54;49797.22;;;-146.31;84.36
2036;BME280;23642;42.658;23.350;2024-02-23T01:43:22;49751.84;;;-146.31;85.29
2036;BME280;23642;42.658;23.350;2024-02-23T01:45:52;49772.47;;;-146.31;85.14
2036;BME280;23642;42.658;23.350;2024-02-23T01:48:20;49774.53;;;-146.31;80.38
2036;BME280;23642;42.658;23.350;2024-02-23T01:50:49;49784.84;;;-146.31;80.92
2036;BME280;23642;42.658;23.350;2024-02-23T01:53:18;49813.72;;;-146.31;82.78
2036;BME280;23642;42.658;23.350;2024-02-23T01:55:46;49745.66;;;-146.31;80.85
2036;BME280;23642;42.658;23.350;2024-02-23T01:58:14;49801.34;;;-146.31;81.02
2036;BME280;23642;42.658;23.350;2024-02-23T02:00:41;49799.28;;;-146.31;82.52
2036;BME280;23642;42.658;23.350;2024-02-23T02:03:09;49786.91;;;-146.31;81.62
2036;BME280;23642;42.658;23.350;2024-02-23T02:05:36;49815.78;;;-146.31;80.42
2036;BME280;23642;42.658;23.350;2024-02-23T02:08:05;49817.84;;;-146.31;81.38
2036;BME280;23642;42.658;23.350;2024-02-23T02:10:32;49799.28;;;-146.31;81.52
2036;BME280;23642;42.658;23.350;2024-02-23T02:13:02;49751.84;;;-146.31;79.72
2036;BME280;23642;42.658;23.350;2024-02-23T02:15:29;49813.72;;;-146.31;79.94
2036;BME280;23642;42.658;23.350;2024-02-23T02:17:56;49788.97;;;-146.31;81.40
2036;BME280;23642;42.658;23.350;2024-02-23T02:20:25;49764.22;;;-146.31;81.70
2036;BME280;23642;42.658;23.350;2024-02-23T02:22:52;49805.47;;;-146.31;82.16
2036;BME280;23642;42.658;23.350;2024-02-23T02:25:20;49799.28;;;-146.31;82.99
2036;BME280;23642;42.658;23.350;2024-02-23T02:27:47;49788.97;;;-146.31;83.77
2036;BME280;23642;42.658;23.350;2024-02-23T02:30:14;49786.91;;;-146.31;84.77
2036;BME280;23642;42.658;23.350;2024-02-23T02:32:41;49766.28;;;-146.31;83.41
2036;BME280;23642;42.658;23.350;2024-02-23T02:35:10;49766.28;;;-146.31;83.33
2036;BME280;23642;42.658;23.350;2024-02-23T02:37:38;49784.84;;;-146.31;84.20
2036;BME280;23642;42.658;23.350;2024-02-23T02:40:06;49764.22;;;-146.31;84.28
2036;BME280;23642;42.658;23.350;2024-02-23T02:42:35;49714.72;;;-146.31;85.29
2036;BME280;23642;42.658;23.350;2024-02-23T02:45:02;49768.34;;;-146.31;86.64
2036;BME280;23642;42.658;23.350;2024-02-23T02:47:32;49706.47;;;-146.31;87.14
2036;BME280;23642;42.658;23.350;2024-02-23T02:49:59;49708.53;;;-146.31;86.59
2036;BME280;23642;42.658;23.350;2024-02-23T02:52:27;49722.97;;;-146.31;84.74
2036;BME280;23642;42.658;23.350;2024-02-23T02:54:54;49739.47;;;-146.31;84.38
2036;BME280;23642;42.658;23.350;2024-02-23T02:57:23;49788.97;;;-146.31;84.72
2036;BME280;23642;42.658;23.350;2024-02-23T02:59:52;49741.53;;;-146.31;86.27
2036;BME280;23642;42.658;23.350;2024-02-23T03:02:21;49722.97;;;-146.31;86.87
2036;BME280;23642;42.658;23.350;2024-02-23T03:04:48;49731.22;;;-146.31;85.13
2036;BME280;23642;42.658;23.350;2024-02-23T03:07:15;49739.47;;;-146.31;85.65
2036;BME280;23642;42.658;23.350;2024-02-23T03:09:41;49704.41;;;-146.31;84.48
2036;BME280;23642;42.658;23.350;2024-02-23T03:12:08;49737.41;;;-146.31;82.80
2036;BME280;23642;42.658;23.350;2024-02-23T03:14:35;49722.97;;;-146.31;83.78
2036;BME280;23642;42.658;23.350;2024-02-23T03:17:04;49704.41;;;-146.31;84.73
2036;BME280;23642;42.658;23.350;2024-02-23T03:19:31;49749.78;;;-146.31;84.72
2036;BME280;23642;42.658;23.350;2024-02-23T03:21:58;49735.34;;;-146.31;85.14
2036;BME280;23642;42.658;23.350;2024-02-23T03:24:25;49708.53;;;-146.31;85.44
2036;BME280;23642;42.658;23.350;2024-02-23T03:26:52;49735.34;;;-146.31;86.26
2036;BME280;23642;42.658;23.350;2024-02-23T03:29:20;49710.59;;;-146.31;85.99
2036;BME280;23642;42.658;23.350;2024-02-23T03:31:49;49657.00;;;-146.31;87.06
2036;BME280;23642;42.658;23.350;2024-02-23T03:34:19;49687.94;;;-146.31;86.60
2036;BME280;23642;42.658;23.350;2024-02-23T03:36:46;49681.75;;;-146.31;85.95
2036;BME280;23642;42.658;23.350;2024-02-23T03:39:13;49714.72;;;-146.31;86.51
2036;BME280;23642;42.658;23.350;2024-02-23T03:41:40;49712.66;;;-146.31;88.44
2036;BME280;23642;42.658;23.350;2024-02-23T03:44:07;49667.31;;;-146.31;89.71
2036;BME280;23642;42.658;23.350;2024-02-23T03:46:34;49661.13;;;-146.31;88.48
2036;BME280;23642;42.658;23.350;2024-02-23T03:49:01;49657.00;;;-146.31;88.56
2036;BME280;23642;42.658;23.350;2024-02-23T03:51:29;49632.25;;;-146.31;89.10
2036;BME280;23642;42.658;23.350;2024-02-23T03:53:58;49630.19;;;-146.31;89.35
2036;BME280;23642;42.658;23.350;2024-02-23T03:56:25;49659.06;;;-146.31;88.47
2036;BME280;23642;42.658;23.350;2024-02-23T03:58:52;49663.19;;;-146.31;89.25
2036;BME280;23642;42.658;23.350;2024-02-23T04:01:20;49624.00;;;-146.31;89.12
2036;BME280;23642;42.658;23.350;2024-02-23T04:03:47;49675.56;;;-146.31;88.99
2036;BME280;23642;42.658;23.350;2024-02-23T04:06:14;49632.25;;;-146.31;88.38
2036;BME280;23642;42.658;23.350;2024-02-23T04:08:42;49636.38;;;-146.31;88.97
2036;BME280;23642;42.658;23.350;2024-02-23T04:11:12;49634.31;;;-146.31;88.94
2036;BME280;23642;42.658;23.350;2024-02-23T04:13:39;49644.63;;;-146.31;88.19
2036;BME280;23642;42.658;23.350;2024-02-23T04:16:06;49626.06;;;-146.31;88.82
2036;BME280;23642;42.658;23.350;2024-02-23T04:18:33;49609.56;;;-146.31;89.00
2036;BME280;23642;42.658;23.350;2024-02-23T04:21:03;49665.25;;;-146.31;88.55
2036;BME280;23642;42.658;23.350;2024-02-23T04:23:30;49638.44;;;-146.31;89.99
2036;BME280;23642;42.658;23.350;2024-02-23T04:26:00;49624.00;;;-146.31;90.92
2036;BME280;23642;42.658;23.350;2024-02-23T04:28:29;49628.13;;;-146.31;89.26
2036;BME280;23642;42.658;23.350;2024-02-23T04:30:59;49619.88;;;-146.31;88.71
2036;BME280;23642;42.658;23.350;2024-02-23T04:33:26;49657.00;;;-146.31;88.91
2036;BME280;23642;42.658;23.350;2024-02-23T04:35:54;49644.63;;;-146.31;90.77
2036;BME280;23642;42.658;23.350;2024-02-23T04:38:21;49626.06;;;-146.31;92.51
2036;BME280;23642;42.658;23.350;2024-02-23T04:40:48;49632.25;;;-146.31;93.77
2036;BME280;23642;42.658;23.350;2024-02-23T04:43:16;49570.41;;;-146.31;94.71
2036;BME280;23642;42.658;23.350;2024-02-23T04:45:45;49568.34;;;-146.31;95.47
2036;BME280;23642;42.658;23.350;2024-02-23T04:48:13;49578.66;;;-146.31;95.76
2036;BME280;23642;42.658;23.350;2024-02-23T04:50:42;49533.28;;;-146.31;95.64
2036;BME280;23642;42.658;23.350;2024-02-23T04:53:09;49553.91;;;-146.31;95.91
2036;BME280;23642;42.658;23.350;2024-02-23T04:55:38;49541.53;;;-146.31;97.49
2036;BME280;23642;42.658;23.350;2024-02-23T04:58:06;49514.72;;;-146.31;98.60
2036;BME280;23642;42.658;23.350;2024-02-23T05:00:34;49502.34;;;-146.31;97.19
2036;BME280;23642;42.658;23.350;2024-02-23T05:03:00;49512.66;;;-146.31;97.56
2036;BME280;23642;42.658;23.350;2024-02-23T05:05:28;49481.75;;;-146.31;98.36
2036;BME280;23642;42.658;23.350;2024-02-23T05:07:55;49471.44;;;-146.31;97.97
2036;BME280;23642;42.658;23.350;2024-02-23T05:10:24;49469.38;;;-146.31;98.22
2036;BME280;23642;42.658;23.350;2024-02-23T05:12:51;49421.94;;;-146.31;98.25
2036;BME280;23642;42.658;23.350;2024-02-23T05:15:18;49463.19;;;-146.31;96.94
2036;BME280;23642;42.658;23.350;2024-02-23T05:17:46;49465.25;;;-146.31;97.24
2036;BME280;23642;42.658;23.350;2024-02-23T05:20:14;49487.94;;;-146.31;97.60
2036;BME280;23642;42.658;23.350;2024-02-23T05:22:40;49479.69;;;-146.31;99.45
2036;BME280;23642;42.658;23.350;2024-02-23T05:25:08;49424.00;;;-146.31;99.97
2036;BME280;23642;42.658;23.350;2024-02-23T05:27:35;49438.44;;;-146.31;97.75
2036;BME280;23642;42.658;23.350;2024-02-23T05:30:03;49463.19;;;-146.31;95.99
2036;BME280;23642;42.658;23.350;2024-02-23T05:32:30;49471.44;;;-146.31;96.03
2036;BME280;23642;42.658;23.350;2024-02-23T05:34:58;49471.44;;;-146.31;97.19
2036;BME280;23642;42.658;23.350;2024-02-23T05:37:25;49428.13;;;-146.31;97.47
2036;BME280;23642;42.658;23.350;2024-02-23T05:39:53;49446.69;;;-146.31;98.08
2036;BME280;23642;42.658;23.350;2024-02-23T05:42:20;49430.19;;;-146.31;98.30
2036;BME280;23642;42.658;23.350;2024-02-23T05:44:47;49421.94;;;-146.31;98.86
2036;BME280;23642;42.658;23.350;2024-02-23T05:47:15;49401.34;;;-146.31;99.50
2036;BME280;23642;42.658;23.350;2024-02-23T05:49:42;49378.66;;;-146.31;99.70
2036;BME280;23642;42.658;23.350;2024-02-23T05:52:10;49374.53;;;-146.31;98.68
2036;BME280;23642;42.658;23.350;2024-02-23T05:54:37;49399.28;;;-146.31;96.89
2036;BME280;23642;42.658;23.350;2024-02-23T05:57:04;49426.06;;;-146.31;95.66
2036;BME280;23642;42.658;23.350;2024-02-23T05:59:33;49438.44;;;-146.31;96.49
2036;BME280;23642;42.658;23.350;2024-02-23T06:02:23;49421.94;;;-146.31;96.50
2036;BME280;23642;42.658;23.350;2024-02-23T06:05:07;49403.38;;;-146.31;97.42
2036;BME280;23642;42.658;23.350;2024-02-23T06:10:55;49428.13;;;-146.31;96.82
2036;BME280;23642;42.658;23.350;2024-02-23T06:13:40;49391.03;;;-146.31;96.54
2036;BME280;23642;42.658;23.350;2024-02-23T06:16:16;49376.59;;;-146.31;95.44
2036;BME280;23642;42.658;23.350;2024-02-23T06:18:52;49448.75;;;-146.31;94.05
2036;BME280;23642;42.658;23.350;2024-02-23T06:21:19;49419.88;;;-146.31;93.59
2036;BME280;23642;42.658;23.350;2024-02-23T06:23:47;49461.13;;;-146.31;92.99
2036;BME280;23642;42.658;23.350;2024-02-23T06:26:14;49452.88;;;-146.31;91.29
2036;BME280;23642;42.658;23.350;2024-02-23T06:28:42;49543.59;;;-146.31;88.06
2036;BME280;23642;42.658;23.350;2024-02-23T06:31:12;49578.66;;;-146.31;87.40
2036;BME280;23642;42.658;23.350;2024-02-23T06:33:39;49574.53;;;-146.31;87.85
2036;BME280;23642;42.658;23.350;2024-02-23T06:36:07;49578.66;;;-146.31;87.32
2036;BME280;23642;42.658;23.350;2024-02-23T06:38:39;49553.91;;;-146.31;86.73
2036;BME280;23642;42.658;23.350;2024-02-23T06:41:08;49582.78;;;-146.31;85.72
2036;BME280;23642;42.658;23.350;2024-02-23T06:43:36;49584.84;;;-146.31;86.44
2036;BME280;23642;42.658;23.350;2024-02-23T06:46:06;49609.56;;;-146.31;86.37
2036;BME280;23642;42.658;23.350;2024-02-23T06:48:36;49630.19;;;-146.31;84.14
2036;BME280;23642;42.658;23.350;2024-02-23T06:51:04;49677.63;;;-146.31;81.97
2036;BME280;23642;42.658;23.350;2024-02-23T06:53:32;49652.88;;;-146.31;82.57
2036;BME280;23642;42.658;23.350;2024-02-23T06:56:00;49698.25;;;-146.31;82.84
2036;BME280;23642;42.658;23.350;2024-02-23T06:58:29;49679.69;;;-146.31;80.52
2036;BME280;23642;42.658;23.350;2024-02-23T07:00:56;49729.16;;;-146.31;79.33
2036;BME280;23642;42.658;23.350;2024-02-23T07:03:25;49698.25;;;-146.31;78.74
2036;BME280;23642;42.658;23.350;2024-02-23T07:05:52;49755.97;;;-146.31;78.81
2036;BME280;23642;42.658;23.350;2024-02-23T07:08:19;49739.47;;;-146.31;78.64
2036;BME280;23642;42.658;23.350;2024-02-23T07:10:48;49753.91;;;-146.31;78.30
2036;BME280;23642;42.658;23.350;2024-02-23T07:13:15;49768.34;;;-146.31;75.42
2036;BME280;23642;42.658;23.350;2024-02-23T07:15:56;49813.72;;;-146.31;75.50
2036;BME280;23642;42.658;23.350;2024-02-23T07:18:23;49821.97;;;-146.31;73.30
2036;BME280;23642;42.658;23.350;2024-02-23T07:20:50;49846.69;;;-146.31;73.38
2036;BME280;23642;42.658;23.350;2024-02-23T07:23:17;49854.94;;;-146.31;73.38
2036;BME280;23642;42.658;23.350;2024-02-23T07:25:45;49863.19;;;-146.31;73.82
2036;BME280;23642;42.658;23.350;2024-02-23T07:28:13;49836.38;;;-146.31;73.71
2036;BME280;23642;42.658;23.350;2024-02-23T07:30:45;49854.94;;;-146.31;73.44
2036;BME280;23642;42.658;23.350;2024-02-23T07:33:11;49869.38;;;-146.31;72.95
2036;BME280;23642;42.658;23.350;2024-02-23T07:35:38;49887.94;;;-146.31;73.48
2036;BME280;23642;42.658;23.350;2024-02-23T07:38:05;49840.50;;;-146.31;74.02
2036;BME280;23642;42.658;23.350;2024-02-23T07:40:32;49826.06;;;-146.31;74.06
2036;BME280;23642;42.658;23.350;2024-02-23T07:42:59;49813.72;;;-146.31;72.72
2036;BME280;23642;42.658;23.350;2024-02-23T07:45:26;49863.19;;;-146.31;71.70
2036;BME280;23642;42.658;23.350;2024-02-23T07:47:54;49830.19;;;-146.31;72.56
2036;BME280;23642;42.658;23.350;2024-02-23T07:50:21;49826.06;;;-146.31;72.75
2036;BME280;23642;42.658;23.350;2024-02-23T07:52:48;49805.47;;;-146.31;72.00
2036;BME280;23642;42.658;23.350;2024-02-23T07:55:15;49838.44;;;-146.31;70.80
2036;BME280;23642;42.658;23.350;2024-02-23T07:57:45;49826.06;;;-146.31;71.68
2036;BME280;23642;42.658;23.350;2024-02-23T08:00:16;49795.16;;;-146.31;71.58
2036;BME280;23642;42.658;23.350;2024-02-23T08:02:44;49793.09;;;-146.31;71.55
2036;BME280;23642;42.658;23.350;2024-02-23T08:05:13;49817.84;;;-146.31;70.59
2036;BME280;23642;42.658;23.350;2024-02-23T08:07:40;49809.59;;;-146.31;70.15
2036;BME280;23642;42.658;23.350;2024-02-23T08:10:07;49776.59;;;-146.31;69.85
2036;BME280;23642;42.658;23.350;2024-02-23T08:12:40;49805.47;;;-146.31;69.55
2036;BME280;23642;42.658;23.350;2024-02-23T08:15:25;49803.41;;;-146.31;68.69
2036;BME280;23642;42.658;23.350;2024-02-23T08:17:52;49758.03;;;-146.31;67.63
2036;BME280;23642;42.658;23.350;2024-02-23T08:20:20;49803.41;;;-146.31;66.58
2036;BME280;23642;42.658;23.350;2024-02-23T08:22:47;49791.03;;;-146.31;66.18
2036;BME280;23642;42.658;23.350;2024-02-23T08:25:14;49799.28;;;-146.31;66.40
2036;BME280;23642;42.658;23.350;2024-02-23T08:27:41;49801.34;;;-146.31;65.71
2036;BME280;23642;42.658;23.350;2024-02-23T08:30:09;49807.53;;;-146.31;65.54
2036;BME280;23642;42.658;23.350;2024-02-23T08:32:36;49791.03;;;-146.31;64.50
2036;BME280;23642;42.658;23.350;2024-02-23T08:35:04;49813.72;;;-146.31;63.61
2036;BME280;23642;42.658;23.350;2024-02-23T08:37:38;49801.34;;;-146.31;63.21
2036;BME280;23642;42.658;23.350;2024-02-23T08:40:06;49846.69;;;-146.31;63.37
2036;BME280;23642;42.658;23.350;2024-02-23T08:42:36;49836.38;;;-146.31;63.50
2036;BME280;23642;42.658;23.350;2024-02-23T08:45:03;49854.94;;;-146.31;62.58
2036;BME280;23642;42.658;23.350;2024-02-23T08:47:31;49828.13;;;-146.31;62.12
2036;BME280;23642;42.658;23.350;2024-02-23T08:50:03;49863.19;;;-146.31;62.00
2036;BME280;23642;42.658;23.350;2024-02-23T08:52:30;49877.63;;;-146.31;62.43
2036;BME280;23642;42.658;23.350;2024-02-23T08:54:58;49873.50;;;-146.31;62.21
2036;BME280;23642;42.658;23.350;2024-02-23T08:57:25;49904.44;;;-146.31;62.25
2036;BME280;23642;42.658;23.350;2024-02-23T09:03:24;49931.25;;;-146.31;60.49
2036;BME280;23642;42.658;23.350;2024-02-23T09:05:51;49935.38;;;-146.31;60.18
2036;BME280;23642;42.658;23.350;2024-02-23T09:08:18;49972.47;;;-146.31;59.51
2036;BME280;23642;42.658;23.350;2024-02-23T09:10:46;49991.03;;;-146.31;59.49
2036;BME280;23642;42.658;23.350;2024-02-23T09:13:14;49962.19;;;-146.31;59.88
2036;BME280;23642;42.658;23.350;2024-02-23T09:15:41;49964.25;;;-146.31;59.54
2036;BME280;23642;42.658;23.350;2024-02-23T09:18:09;50036.41;;;-146.31;58.73
2036;BME280;23642;42.658;23.350;2024-02-23T09:20:36;50036.41;;;-146.31;58.07
2036;BME280;23642;42.658;23.350;2024-02-23T09:23:03;50030.22;;;-146.31;57.39
2036;BME280;23642;42.658;23.350;2024-02-23T09:25:37;50054.97;;;-146.31;56.28
2036;BME280;23642;42.658;23.350;2024-02-23T09:28:08;50114.78;;;-146.31;55.53
2036;BME280;23642;42.658;23.350;2024-02-23T09:30:36;50102.41;;;-146.31;55.12
2036;BME280;23642;42.658;23.350;2024-02-23T09:33:04;50135.41;;;-146.31;54.13
2036;BME280;23642;42.658;23.350;2024-02-23T09:35:32;50178.69;;;-146.31;53.83
2036;BME280;23642;42.658;23.350;2024-02-23T09:38:02;50197.25;;;-146.31;53.15
2036;BME280;23642;42.658;23.350;2024-02-23T09:40:42;50240.56;;;-146.31;52.08
2036;BME280;23642;42.658;23.350;2024-02-23T09:43:29;50279.75;;;-146.31;51.56
2036;BME280;23642;42.658;23.350;2024-02-23T09:45:57;50321.00;;;-146.31;51.29
2036;BME280;23642;42.658;23.350;2024-02-23T09:48:26;50312.75;;;-146.31;51.07
2036;BME280;23642;42.658;23.350;2024-02-23T09:53:50;50395.25;;;-146.31;50.11
2036;BME280;23642;42.658;23.350;2024-02-23T09:56:26;50438.56;;;-146.31;49.06
2036;BME280;23642;42.658;23.350;2024-02-23T09:59:01;50498.38;;;-146.31;49.14
2036;BME280;23642;42.658;23.350;2024-02-23T10:01:33;50531.38;;;-146.31;49.31
2036;BME280;23642;42.658;23.350;2024-02-23T10:04:02;50574.69;;;-146.31;48.89
2036;BME280;23642;42.658;23.350;2024-02-23T10:06:32;50570.56;;;-146.31;49.39
2036;BME280;23642;42.658;23.350;2024-02-23T10:09:18;50589.13;;;-146.31;48.29
2036;BME280;23642;42.658;23.350;2024-02-23T10:12:05;50644.81;;;-146.31;47.68
2036;BME280;23642;42.658;23.350;2024-02-23T10:14:46;50673.69;;;-146.31;48.14
2036;BME280;23642;42.658;23.350;2024-02-23T10:17:16;50671.63;;;-146.31;48.18
2036;BME280;23642;42.658;23.350;2024-02-23T10:19:53;50754.13;;;-146.31;46.84
2036;BME280;23642;42.658;23.350;2024-02-23T10:25:50;51038.75;;;-146.31;45.74
2036;BME280;23642;42.658;23.350;2024-02-23T10:28:17;51040.81;;;-146.31;46.51
2036;BME280;23642;42.658;23.350;2024-02-23T10:30:49;51014.00;;;-146.31;45.95
2036;BME280;23642;42.658;23.350;2024-02-23T10:33:18;51199.66;;;-146.31;44.74
2036;BME280;23642;42.658;23.350;2024-02-23T10:35:50;51385.31;;;-146.31;42.88
2036;BME280;23642;42.658;23.350;2024-02-23T10:38:25;51469.91;;;-146.31;43.52
2036;BME280;23642;42.658;23.350;2024-02-23T10:40:58;51535.94;;;-146.31;42.19
2036;BME280;23642;42.658;23.350;2024-02-23T10:43:32;51581.31;;;-146.31;42.73
2036;BME280;23642;42.658;23.350;2024-02-23T10:49:09;51672.09;;;-146.31;43.24
2036;BME280;23642;42.658;23.350;2024-02-23T10:51:38;51705.09;;;-146.31;43.27
2036;BME280;23642;42.658;23.350;2024-02-23T10:54:06;51725.72;;;-146.31;44.01
2036;BME280;23642;42.658;23.350;2024-02-23T10:56:33;51946.50;;;-146.31;42.78
2036;BME280;23642;42.658;23.350;2024-02-23T10:59:00;52055.84;;;-146.31;43.21
2036;BME280;23642;42.658;23.350;2024-02-23T11:01:27;52057.91;;;-146.31;43.90
2036;BME280;23642;42.658;23.350;2024-02-23T11:03:55;52070.31;;;-146.31;43.78
2036;BME280;23642;42.658;23.350;2024-02-23T11:06:30;52121.88;;;-146.31;43.92
2036;BME280;23642;42.658;23.350;2024-02-23T11:09:12;52084.75;;;-146.31;44.12
2036;BME280;23642;42.658;23.350;2024-02-23T11:11:39;52117.75;;;-146.31;43.18
2036;BME280;23642;42.658;23.350;2024-02-23T11:14:07;52074.44;;;-146.31;42.89
2036;BME280;23642;42.658;23.350;2024-02-23T11:16:39;52105.38;;;-146.31;42.62
2036;BME280;23642;42.658;23.350;2024-02-23T11:19:09;52130.13;;;-146.31;42.82
2036;BME280;23642;42.658;23.350;2024-02-23T11:21:40;52156.97;;;-146.31;42.54
2036;BME280;23642;42.658;23.350;2024-02-23T11:24:07;52301.41;;;-146.31;42.80
2036;BME280;23642;42.658;23.350;2024-02-23T11:26:38;52425.22;;;-146.31;40.90
2036;BME280;23642;42.658;23.350;2024-02-23T11:29:12;52493.31;;;-146.31;41.05
2036;BME280;23642;42.658;23.350;2024-02-23T11:31:46;52386.00;;;-146.31;42.55
2036;BME280;23642;42.658;23.350;2024-02-23T11:34:21;52353.00;;;-146.31;43.50
2036;BME280;23642;42.658;23.350;2024-02-23T11:36:58;52408.72;;;-146.31;43.51
2036;BME280;23642;42.658;23.350;2024-02-23T11:39:34;52375.69;;;-146.31;42.96
2036;BME280;23642;42.658;23.350;2024-02-23T11:42:04;52336.50;;;-146.31;42.69
2036;BME280;23642;42.658;23.350;2024-02-23T11:44:35;52400.47;;;-146.31;41.57
2036;BME280;23642;42.658;23.350;2024-02-23T11:47:02;52396.31;;;-146.31;41.58
2036;BME280;23642;42.658;23.350;2024-02-23T11:52:41;52485.06;;;-146.31;41.50
2036;BME280;23642;42.658;23.350;2024-02-23T11:55:11;52445.84;;;-146.31;41.74
2036;BME280;23642;42.658;23.350;2024-02-23T11:57:40;52462.38;;;-146.31;41.54
2036;BME280;23642;42.658;23.350;2024-02-23T12:00:07;52551.09;;;-146.31;41.62
2036;BME280;23642;42.658;23.350;2024-02-23T12:02:37;52544.91;;;-146.31;41.65
2036;BME280;23642;42.658;23.350;2024-02-23T12:05:04;52561.41;;;-146.31;41.37
2036;BME280;23642;42.658;23.350;2024-02-23T12:07:32;52532.53;;;-146.31;42.07
2036;BME280;23642;42.658;23.350;2024-02-23T12:10:06;52573.81;;;-146.31;41.59
2036;BME280;23642;42.658;23.350;2024-02-23T12:12:41;52639.84;;;-146.31;41.74
2036;BME280;23642;42.658;23.350;2024-02-23T12:15:10;52646.03;;;-146.31;41.99
2036;BME280;23642;42.658;23.350;2024-02-23T12:17:46;52666.66;;;-146.31;40.71
2036;BME280;23642;42.658;23.350;2024-02-23T12:20:14;52757.47;;;-146.31;40.15
2036;BME280;23642;42.658;23.350;2024-02-23T12:22:43;52771.91;;;-146.31;39.98
2036;BME280;23642;42.658;23.350;2024-02-23T12:25:26;52753.34;;;-146.31;40.27
2036;BME280;23642;42.658;23.350;2024-02-23T12:27:55;52804.94;;;-146.31;39.64
2036;BME280;23642;42.658;23.350;2024-02-23T12:30:26;52776.06;;;-146.31;39.33
2036;BME280;23642;42.658;23.350;2024-02-23T12:33:05;52759.53;;;-146.31;39.84
2036;BME280;23642;42.658;23.350;2024-02-23T12:35:35;52685.25;;;-146.31;39.93
2036;BME280;23642;42.658;23.350;2024-02-23T12:38:04;52821.44;;;-146.31;38.99
2036;BME280;23642;42.658;23.350;2024-02-23T12:40:32;52848.28;;;-146.31;38.05
2036;BME280;23642;42.658;23.350;2024-02-23T12:42:58;52798.75;;;-146.31;38.64
2036;BME280;23642;42.658;23.350;2024-02-23T12:45:25;52879.25;;;-146.31;38.56
2036;BME280;23642;42.658;23.350;2024-02-23T12:47:52;52873.06;;;-146.31;38.96
2036;BME280;23642;42.658;23.350;2024-02-23T12:50:21;52939.09;;;-146.31;38.87
2036;BME280;23642;42.658;23.350;2024-02-23T12:52:48;52914.31;;;-146.31;39.27
2036;BME280;23642;42.658;23.350;2024-02-23T12:55:18;52901.94;;;-146.31;38.58
2036;BME280;23642;42.658;23.350;2024-02-23T12:57:46;52904.00;;;-146.31;39.67
2036;BME280;23642;42.658;23.350;2024-02-23T13:00:14;52899.88;;;-146.31;39.62
2036;BME280;23642;42.658;23.350;2024-02-23T13:02:41;52868.94;;;-146.31;39.66
2036;BME280;23642;42.658;23.350;2024-02-23T13:05:09;52920.53;;;-146.31;40.21
2036;BME280;23642;42.658;23.350;2024-02-23T13:07:39;52932.91;;;-146.31;39.74
2036;BME280;23642;42.658;23.350;2024-02-23T13:10:08;52959.72;;;-146.31;38.93